sensor_id;sensor_type;location;lat;lon;timestamp;temperature;humidity
15906;DHT22;8051;50.820;4.884;2023-04-06T00:01:08;2.80;99.90
15906;DHT22;8051;50.820;4.884;2023-04-06T00:03:36;2.80;99.90
15906;DHT22;8051;50.820;4.884;2023-04-06T00:06:04;2.80;99.90
15906;DHT22;8051;50.820;4.884;2023-04-06T00:08:32;2.70;99.90
15906;DHT22;8051;50.820;4.884;2023-04-06T00:10:59;2.80;99.90
15906;DHT22;8051;50.820;4.884;2023-04-06T00:13:27;2.70;99.90
15906;DHT22;8051;50.820;4.884;2023-04-06T00:15:55;2.70;99.90
15906;DHT22;8051;50.820;4.884;2023-04-06T00:18:24;2.70;99.90
15906;DHT22;8051;50.820;4.884;2023-04-06T00:20:52;2.60;99.90
15906;DHT22;8051;50.820;4.884;2023-04-06T00:23:20;2.60;99.90
15906;DHT22;8051;50.820;4.884;2023-04-06T00:25:47;2.60;99.90
15906;DHT22;8051;50.820;4.884;2023-04-06T00:28:15;2.60;99.90
15906;DHT22;8051;50.820;4.884;2023-04-06T00:30:42;2.60;99.90
15906;DHT22;8051;50.820;4.884;2023-04-06T00:33:10;2.60;99.90
15906;DHT22;8051;50.820;4.884;2023-04-06T00:35:39;2.60;99.90
15906;DHT22;8051;50.820;4.884;2023-04-06T00:38:06;2.60;99.90
15906;DHT22;8051;50.820;4.884;2023-04-06T00:40:34;2.60;99.90
15906;DHT22;8051;50.820;4.884;2023-04-06T00:43:02;2.70;99.90
15906;DHT22;8051;50.820;4.884;2023-04-06T00:45:29;2.70;99.90
15906;DHT22;8051;50.820;4.884;2023-04-06T00:47:57;2.70;99.90
15906;DHT22;8051;50.820;4.884;2023-04-06T00:50:24;2.70;99.90
15906;DHT22;8051;50.820;4.884;2023-04-06T00:52:54;2.80;99.90
15906;DHT22;8051;50.820;4.884;2023-04-06T00:55:22;2.70;99.90
15906;DHT22;8051;50.820;4.884;2023-04-06T00:57:49;2.80;99.90
15906;DHT22;8051;50.820;4.884;2023-04-06T01:00:17;2.80;99.90
15906;DHT22;8051;50.820;4.884;2023-04-06T01:02:45;2.80;99.90
15906;DHT22;8051;50.820;4.884;2023-04-06T01:05:13;2.80;99.90
15906;DHT22;8051;50.820;4.884;2023-04-06T01:07:41;2.70;99.90
15906;DHT22;8051;50.820;4.884;2023-04-06T01:10:10;2.70;99.90
15906;DHT22;8051;50.820;4.884;2023-04-06T01:12:38;2.70;99.90
15906;DHT22;8051;50.820;4.884;2023-04-06T01:15:07;2.70;99.90
15906;DHT22;8051;50.820;4.884;2023-04-06T01:17:36;2.70;99.90
15906;DHT22;8051;50.820;4.884;2023-04-06T01:20:04;2.70;99.90
15906;DHT22;8051;50.820;4.884;2023-04-06T01:22:34;2.70;99.90
15906;DHT22;8051;50.820;4.884;2023-04-06T01:25:01;2.70;99.90
15906;DHT22;8051;50.820;4.884;2023-04-06T01:27:29;2.70;99.90
15906;DHT22;8051;50.820;4.884;2023-04-06T01:29:56;2.80;99.90
15906;DHT22;8051;50.820;4.884;2023-04-06T01:32:24;2.80;99.90
15906;DHT22;8051;50.820;4.884;2023-04-06T01:34:52;2.80;99.90
15906;DHT22;8051;50.820;4.884;2023-04-06T01:37:20;2.90;99.90
15906;DHT22;8051;50.820;4.884;2023-04-06T01:39:49;2.90;99.90
15906;DHT22;8051;50.820;4.884;2023-04-06T01:42:17;3.00;99.90
15906;DHT22;8051;50.820;4.884;2023-04-06T01:44:44;3.00;99.90
15906;DHT22;8051;50.820;4.884;2023-04-06T01:47:12;3.10;99.90
15906;DHT22;8051;50.820;4.884;2023-04-06T01:49:39;3.10;99.90
15906;DHT22;8051;50.820;4.884;2023-04-06T01:52:07;3.10;99.90
15906;DHT22;8051;50.820;4.884;2023-04-06T01:54:34;3.10;99.90
15906;DHT22;8051;50.820;4.884;2023-04-06T01:57:03;3.10;99.90
15906;DHT22;8051;50.820;4.884;2023-04-06T01:59:31;3.20;99.90
15906;DHT22;8051;50.820;4.884;2023-04-06T02:01:59;3.20;99.90
15906;DHT22;8051;50.820;4.884;2023-04-06T02:04:26;3.20;99.90
15906;DHT22;8051;50.820;4.884;2023-04-06T02:06:53;3.20;99.90
15906;DHT22;8051;50.820;4.884;2023-04-06T02:09:21;3.20;99.90
15906;DHT22;8051;50.820;4.884;2023-04-06T02:11:48;3.30;99.90
15906;DHT22;8051;50.820;4.884;2023-04-06T02:14:17;3.30;99.90
15906;DHT22;8051;50.820;4.884;2023-04-06T02:16:45;3.30;99.90
15906;DHT22;8051;50.820;4.884;2023-04-06T02:19:12;3.40;99.90
15906;DHT22;8051;50.820;4.884;2023-04-06T02:21:40;3.40;99.90
15906;DHT22;8051;50.820;4.884;2023-04-06T02:24:08;3.40;99.90
15906;DHT22;8051;50.820;4.884;2023-04-06T02:26:35;3.40;99.90
15906;DHT22;8051;50.820;4.884;2023-04-06T02:29:02;3.40;99.90
15906;DHT22;8051;50.820;4.884;2023-04-06T02:31:31;3.40;99.90
15906;DHT22;8051;50.820;4.884;2023-04-06T02:33:58;3.40;99.90
15906;DHT22;8051;50.820;4.884;2023-04-06T02:36:26;3.50;99.90
15906;DHT22;8051;50.820;4.884;2023-04-06T02:38:53;3.50;99.90
15906;DHT22;8051;50.820;4.884;2023-04-06T02:41:21;3.50;99.90
15906;DHT22;8051;50.820;4.884;2023-04-06T02:43:48;3.60;99.90
15906;DHT22;8051;50.820;4.884;2023-04-06T02:46:16;3.60;99.90
15906;DHT22;8051;50.820;4.884;2023-04-06T02:48:45;3.60;99.90
15906;DHT22;8051;50.820;4.884;2023-04-06T02:51:12;3.60;99.90
15906;DHT22;8051;50.820;4.884;2023-04-06T02:53:40;3.60;99.90
15906;DHT22;8051;50.820;4.884;2023-04-06T02:56:07;3.60;99.90
15906;DHT22;8051;50.820;4.884;2023-04-06T02:58:35;3.70;99.90
15906;DHT22;8051;50.820;4.884;2023-04-06T03:01:02;3.60;99.90
15906;DHT22;8051;50.820;4.884;2023-04-06T03:03:30;3.70;99.90
15906;DHT22;8051;50.820;4.884;2023-04-06T03:05:59;3.70;99.90
15906;DHT22;8051;50.820;4.884;2023-04-06T03:08:26;3.70;99.90
15906;DHT22;8051;50.820;4.884;2023-04-06T03:10:54;3.70;99.90
15906;DHT22;8051;50.820;4.884;2023-04-06T03:13:21;3.70;99.90
15906;DHT22;8051;50.820;4.884;2023-04-06T03:15:49;3.70;99.90
15906;DHT22;8051;50.820;4.884;2023-04-06T03:18:20;3.70;99.90
15906;DHT22;8051;50.820;4.884;2023-04-06T03:20:48;3.70;99.90
15906;DHT22;8051;50.820;4.884;2023-04-06T03:23:17;3.70;99.90
15906;DHT22;8051;50.820;4.884;2023-04-06T03:25:46;3.60;99.90
15906;DHT22;8051;50.820;4.884;2023-04-06T03:28:14;3.70;99.90
15906;DHT22;8051;50.820;4.884;2023-04-06T03:30:41;3.70;99.90
15906;DHT22;8051;50.820;4.884;2023-04-06T03:33:09;3.70;99.90
15906;DHT22;8051;50.820;4.884;2023-04-06T03:35:37;3.70;99.90
15906;DHT22;8051;50.820;4.884;2023-04-06T03:38:04;3.70;99.90
15906;DHT22;8051;50.820;4.884;2023-04-06T03:40:33;3.70;99.90
15906;DHT22;8051;50.820;4.884;2023-04-06T03:43:02;3.70;99.90
15906;DHT22;8051;50.820;4.884;2023-04-06T03:45:29;3.70;99.90
15906;DHT22;8051;50.820;4.884;2023-04-06T03:47:57;3.70;99.90
15906;DHT22;8051;50.820;4.884;2023-04-06T03:50:24;3.80;99.90
15906;DHT22;8051;50.820;4.884;2023-04-06T03:52:52;3.70;99.90
15906;DHT22;8051;50.820;4.884;2023-04-06T03:55:20;3.80;99.90
15906;DHT22;8051;50.820;4.884;2023-04-06T03:57:49;3.80;99.90
15906;DHT22;8051;50.820;4.884;2023-04-06T04:00:16;3.70;99.90
15906;DHT22;8051;50.820;4.884;2023-04-06T04:02:44;3.80;99.90
15906;DHT22;8051;50.820;4.884;2023-04-06T04:05:11;3.80;99.90
15906;DHT22;8051;50.820;4.884;2023-04-06T04:07:39;3.80;99.90
15906;DHT22;8051;50.820;4.884;2023-04-06T04:10:07;3.80;99.90
15906;DHT22;8051;50.820;4.884;2023-04-06T04:12:35;3.90;99.90
15906;DHT22;8051;50.820;4.884;2023-04-06T04:15:05;3.90;99.90
15906;DHT22;8051;50.820;4.884;2023-04-06T04:17:33;3.90;99.90
15906;DHT22;8051;50.820;4.884;2023-04-06T04:20:00;4.00;99.90
15906;DHT22;8051;50.820;4.884;2023-04-06T04:22:28;4.10;99.90
15906;DHT22;8051;50.820;4.884;2023-04-06T04:24:55;4.10;99.90
15906;DHT22;8051;50.820;4.884;2023-04-06T04:27:23;4.10;99.90
15906;DHT22;8051;50.820;4.884;2023-04-06T04:29:50;4.20;99.90
15906;DHT22;8051;50.820;4.884;2023-04-06T04:32:19;4.20;99.90
15906;DHT22;8051;50.820;4.884;2023-04-06T04:34:47;4.20;99.90
15906;DHT22;8051;50.820;4.884;2023-04-06T04:37:14;4.30;99.90
15906;DHT22;8051;50.820;4.884;2023-04-06T04:39:42;4.30;99.90
15906;DHT22;8051;50.820;4.884;2023-04-06T04:42:09;4.30;99.90
15906;DHT22;8051;50.820;4.884;2023-04-06T04:44:37;4.30;99.90
15906;DHT22;8051;50.820;4.884;2023-04-06T04:47:04;4.30;99.90
15906;DHT22;8051;50.820;4.884;2023-04-06T04:49:33;4.40;99.90
15906;DHT22;8051;50.820;4.884;2023-04-06T04:52:01;4.40;99.90
15906;DHT22;8051;50.820;4.884;2023-04-06T04:54:28;4.40;99.90
15906;DHT22;8051;50.820;4.884;2023-04-06T04:56:56;4.40;99.90
15906;DHT22;8051;50.820;4.884;2023-04-06T04:59:23;4.40;99.90
15906;DHT22;8051;50.820;4.884;2023-04-06T05:01:51;4.40;99.90
15906;DHT22;8051;50.820;4.884;2023-04-06T05:04:19;4.40;99.90
15906;DHT22;8051;50.820;4.884;2023-04-06T05:06:48;4.40;99.90
15906;DHT22;8051;50.820;4.884;2023-04-06T05:09:15;4.40;99.90
15906;DHT22;8051;50.820;4.884;2023-04-06T05:11:43;4.40;99.90
15906;DHT22;8051;50.820;4.884;2023-04-06T05:14:10;4.40;99.90
15906;DHT22;8051;50.820;4.884;2023-04-06T05:16:38;4.50;99.90
15906;DHT22;8051;50.820;4.884;2023-04-06T05:19:06;4.50;99.90
15906;DHT22;8051;50.820;4.884;2023-04-06T05:21:33;4.50;99.90
15906;DHT22;8051;50.820;4.884;2023-04-06T05:24:02;4.50;99.90
15906;DHT22;8051;50.820;4.884;2023-04-06T05:26:30;4.50;99.90
15906;DHT22;8051;50.820;4.884;2023-04-06T05:28:57;4.60;99.90
15906;DHT22;8051;50.820;4.884;2023-04-06T05:31:25;4.60;99.90
15906;DHT22;8051;50.820;4.884;2023-04-06T05:33:53;4.70;99.90
15906;DHT22;8051;50.820;4.884;2023-04-06T05:36:20;4.70;99.90
15906;DHT22;8051;50.820;4.884;2023-04-06T05:38:48;4.80;99.90
15906;DHT22;8051;50.820;4.884;2023-04-06T05:41:17;4.80;99.90
15906;DHT22;8051;50.820;4.884;2023-04-06T05:43:46;4.90;99.90
15906;DHT22;8051;50.820;4.884;2023-04-06T05:46:13;4.90;99.90
15906;DHT22;8051;50.820;4.884;2023-04-06T05:48:41;5.00;99.90
15906;DHT22;8051;50.820;4.884;2023-04-06T05:51:08;5.00;99.90
15906;DHT22;8051;50.820;4.884;2023-04-06T05:53:36;5.10;99.90
15906;DHT22;8051;50.820;4.884;2023-04-06T05:56:04;5.10;99.90
15906;DHT22;8051;50.820;4.884;2023-04-06T05:58:33;5.20;99.90
15906;DHT22;8051;50.820;4.884;2023-04-06T06:01:02;5.20;99.90
15906;DHT22;8051;50.820;4.884;2023-04-06T06:03:30;5.20;99.90
15906;DHT22;8051;50.820;4.884;2023-04-06T06:06:01;5.30;99.90
15906;DHT22;8051;50.820;4.884;2023-04-06T06:08:29;5.40;99.90
15906;DHT22;8051;50.820;4.884;2023-04-06T06:10:56;5.50;99.90
15906;DHT22;8051;50.820;4.884;2023-04-06T06:13:24;5.60;99.90
15906;DHT22;8051;50.820;4.884;2023-04-06T06:15:52;5.70;99.90
15906;DHT22;8051;50.820;4.884;2023-04-06T06:18:20;5.80;99.90
15906;DHT22;8051;50.820;4.884;2023-04-06T06:20:47;5.90;99.90
15906;DHT22;8051;50.820;4.884;2023-04-06T06:23:15;6.00;99.90
15906;DHT22;8051;50.820;4.884;2023-04-06T06:25:42;6.20;99.90
15906;DHT22;8051;50.820;4.884;2023-04-06T06:28:10;6.30;99.90
15906;DHT22;8051;50.820;4.884;2023-04-06T06:30:37;6.40;99.90
15906;DHT22;8051;50.820;4.884;2023-04-06T06:33:06;6.50;99.90
15906;DHT22;8051;50.820;4.884;2023-04-06T06:35:34;6.60;99.90
15906;DHT22;8051;50.820;4.884;2023-04-06T06:38:01;6.70;99.90
15906;DHT22;8051;50.820;4.884;2023-04-06T06:40:29;6.80;99.90
15906;DHT22;8051;50.820;4.884;2023-04-06T06:42:56;6.80;99.90
15906;DHT22;8051;50.820;4.884;2023-04-06T06:45:24;6.90;99.90
15906;DHT22;8051;50.820;4.884;2023-04-06T06:47:52;6.90;99.90
15906;DHT22;8051;50.820;4.884;2023-04-06T06:50:21;6.90;99.90
15906;DHT22;8051;50.820;4.884;2023-04-06T06:52:48;7.00;99.90
15906;DHT22;8051;50.820;4.884;2023-04-06T06:55:16;7.10;99.90
15906;DHT22;8051;50.820;4.884;2023-04-06T06:57:45;7.10;99.90
15906;DHT22;8051;50.820;4.884;2023-04-06T07:00:14;7.10;99.90
15906;DHT22;8051;50.820;4.884;2023-04-06T07:02:41;7.20;99.90
15906;DHT22;8051;50.820;4.884;2023-04-06T07:05:09;7.20;99.90
15906;DHT22;8051;50.820;4.884;2023-04-06T07:07:38;7.20;99.90
15906;DHT22;8051;50.820;4.884;2023-04-06T07:10:06;7.30;99.90
15906;DHT22;8051;50.820;4.884;2023-04-06T07:12:34;7.30;99.90
15906;DHT22;8051;50.820;4.884;2023-04-06T07:15:01;7.30;99.90
15906;DHT22;8051;50.820;4.884;2023-04-06T07:17:29;7.30;99.90
15906;DHT22;8051;50.820;4.884;2023-04-06T07:19:56;7.40;99.90
15906;DHT22;8051;50.820;4.884;2023-04-06T07:22:24;7.40;99.90
15906;DHT22;8051;50.820;4.884;2023-04-06T07:24:53;7.40;99.90
15906;DHT22;8051;50.820;4.884;2023-04-06T07:27:20;7.50;99.90
15906;DHT22;8051;50.820;4.884;2023-04-06T07:29:48;7.60;99.90
15906;DHT22;8051;50.820;4.884;2023-04-06T07:32:15;7.70;99.90
15906;DHT22;8051;50.820;4.884;2023-04-06T07:34:43;7.80;99.90
15906;DHT22;8051;50.820;4.884;2023-04-06T07:37:12;7.90;99.90
15906;DHT22;8051;50.820;4.884;2023-04-06T07:39:40;8.00;99.90
15906;DHT22;8051;50.820;4.884;2023-04-06T07:42:09;8.00;99.90
15906;DHT22;8051;50.820;4.884;2023-04-06T07:44:37;8.10;99.90
15906;DHT22;8051;50.820;4.884;2023-04-06T07:47:04;8.10;99.90
15906;DHT22;8051;50.820;4.884;2023-04-06T07:49:32;8.20;99.90
15906;DHT22;8051;50.820;4.884;2023-04-06T07:52:00;8.20;99.90
15906;DHT22;8051;50.820;4.884;2023-04-06T07:54:28;8.30;99.90
15906;DHT22;8051;50.820;4.884;2023-04-06T07:56:56;8.20;99.90
15906;DHT22;8051;50.820;4.884;2023-04-06T07:59:25;8.20;99.90
15906;DHT22;8051;50.820;4.884;2023-04-06T08:01:52;8.00;99.90
15906;DHT22;8051;50.820;4.884;2023-04-06T08:04:20;7.90;99.90
15906;DHT22;8051;50.820;4.884;2023-04-06T08:06:48;7.80;99.90
15906;DHT22;8051;50.820;4.884;2023-04-06T08:09:15;7.70;99.90
15906;DHT22;8051;50.820;4.884;2023-04-06T08:11:43;7.80;99.90
15906;DHT22;8051;50.820;4.884;2023-04-06T08:14:12;7.80;99.90
15906;DHT22;8051;50.820;4.884;2023-04-06T08:16:41;7.90;99.90
15906;DHT22;8051;50.820;4.884;2023-04-06T08:19:08;8.10;99.90
15906;DHT22;8051;50.820;4.884;2023-04-06T08:21:37;8.20;99.90
15906;DHT22;8051;50.820;4.884;2023-04-06T08:24:05;8.40;99.90
15906;DHT22;8051;50.820;4.884;2023-04-06T08:26:33;8.50;99.90
15906;DHT22;8051;50.820;4.884;2023-04-06T08:29:01;8.50;99.90
15906;DHT22;8051;50.820;4.884;2023-04-06T08:31:30;8.50;99.90
15906;DHT22;8051;50.820;4.884;2023-04-06T08:33:59;8.30;99.90
15906;DHT22;8051;50.820;4.884;2023-04-06T08:36:27;8.30;99.90
15906;DHT22;8051;50.820;4.884;2023-04-06T08:38:54;8.20;99.90
15906;DHT22;8051;50.820;4.884;2023-04-06T08:41:22;8.20;99.90
15906;DHT22;8051;50.820;4.884;2023-04-06T08:43:52;8.10;99.90
15906;DHT22;8051;50.820;4.884;2023-04-06T08:46:22;8.10;99.90
15906;DHT22;8051;50.820;4.884;2023-04-06T08:48:55;8.00;99.90
15906;DHT22;8051;50.820;4.884;2023-04-06T08:51:25;8.00;99.90
15906;DHT22;8051;50.820;4.884;2023-04-06T08:53:54;8.00;99.90
15906;DHT22;8051;50.820;4.884;2023-04-06T08:56:22;8.00;99.90
15906;DHT22;8051;50.820;4.884;2023-04-06T08:58:50;7.90;99.90
15906;DHT22;8051;50.820;4.884;2023-04-06T09:01:21;7.80;99.90
15906;DHT22;8051;50.820;4.884;2023-04-06T09:03:49;7.80;99.90
15906;DHT22;8051;50.820;4.884;2023-04-06T09:06:18;7.80;99.90
15906;DHT22;8051;50.820;4.884;2023-04-06T09:08:47;7.80;99.90
15906;DHT22;8051;50.820;4.884;2023-04-06T09:11:15;7.80;99.90
15906;DHT22;8051;50.820;4.884;2023-04-06T09:13:47;7.70;99.90
15906;DHT22;8051;50.820;4.884;2023-04-06T09:16:15;7.70;99.90
15906;DHT22;8051;50.820;4.884;2023-04-06T09:18:43;7.80;99.90
15906;DHT22;8051;50.820;4.884;2023-04-06T09:21:11;7.90;99.90
15906;DHT22;8051;50.820;4.884;2023-04-06T09:23:39;8.00;99.90
15906;DHT22;8051;50.820;4.884;2023-04-06T09:26:10;8.00;99.90
15906;DHT22;8051;50.820;4.884;2023-04-06T09:28:49;8.00;99.90
15906;DHT22;8051;50.820;4.884;2023-04-06T09:31:22;8.10;99.90
15906;DHT22;8051;50.820;4.884;2023-04-06T09:33:50;8.10;99.90
15906;DHT22;8051;50.820;4.884;2023-04-06T09:36:19;8.20;99.90
15906;DHT22;8051;50.820;4.884;2023-04-06T09:38:53;8.30;99.90
15906;DHT22;8051;50.820;4.884;2023-04-06T09:41:24;8.30;99.90
15906;DHT22;8051;50.820;4.884;2023-04-06T09:43:52;8.30;99.90
15906;DHT22;8051;50.820;4.884;2023-04-06T09:46:21;8.30;99.90
15906;DHT22;8051;50.820;4.884;2023-04-06T09:48:51;8.30;99.90
15906;DHT22;8051;50.820;4.884;2023-04-06T09:51:20;8.20;99.90
15906;DHT22;8051;50.820;4.884;2023-04-06T09:53:53;8.20;99.90
15906;DHT22;8051;50.820;4.884;2023-04-06T09:56:25;8.20;99.90
15906;DHT22;8051;50.820;4.884;2023-04-06T09:58:58;8.30;99.90
15906;DHT22;8051;50.820;4.884;2023-04-06T10:01:30;8.30;99.90
15906;DHT22;8051;50.820;4.884;2023-04-06T10:04:06;8.40;99.90
15906;DHT22;8051;50.820;4.884;2023-04-06T10:06:38;8.40;99.90
15906;DHT22;8051;50.820;4.884;2023-04-06T10:09:07;8.20;99.90
15906;DHT22;8051;50.820;4.884;2023-04-06T10:11:37;8.20;99.90
15906;DHT22;8051;50.820;4.884;2023-04-06T10:14:05;8.10;99.90
15906;DHT22;8051;50.820;4.884;2023-04-06T10:16:33;8.20;99.90
15906;DHT22;8051;50.820;4.884;2023-04-06T10:19:06;8.40;99.90
15906;DHT22;8051;50.820;4.884;2023-04-06T10:21:39;8.50;99.90
15906;DHT22;8051;50.820;4.884;2023-04-06T10:24:08;8.60;99.90
15906;DHT22;8051;50.820;4.884;2023-04-06T10:26:39;8.70;99.90
15906;DHT22;8051;50.820;4.884;2023-04-06T10:29:07;8.70;99.90
15906;DHT22;8051;50.820;4.884;2023-04-06T10:31:41;8.70;99.90
15906;DHT22;8051;50.820;4.884;2023-04-06T10:34:10;8.70;99.90
15906;DHT22;8051;50.820;4.884;2023-04-06T10:36:37;8.60;99.90
15906;DHT22;8051;50.820;4.884;2023-04-06T10:39:06;8.50;99.90
15906;DHT22;8051;50.820;4.884;2023-04-06T10:41:35;8.30;99.90
15906;DHT22;8051;50.820;4.884;2023-04-06T10:44:04;8.10;99.90
15906;DHT22;8051;50.820;4.884;2023-04-06T10:46:33;8.10;99.90
15906;DHT22;8051;50.820;4.884;2023-04-06T10:49:10;8.10;99.90
15906;DHT22;8051;50.820;4.884;2023-04-06T10:51:39;8.30;99.90
15906;DHT22;8051;50.820;4.884;2023-04-06T10:54:07;8.30;99.90
15906;DHT22;8051;50.820;4.884;2023-04-06T10:56:37;8.30;99.90
15906;DHT22;8051;50.820;4.884;2023-04-06T10:59:07;8.20;99.90
15906;DHT22;8051;50.820;4.884;2023-04-06T11:01:35;8.20;99.90
15906;DHT22;8051;50.820;4.884;2023-04-06T11:04:02;8.20;99.90
15906;DHT22;8051;50.820;4.884;2023-04-06T11:06:30;8.10;99.90
15906;DHT22;8051;50.820;4.884;2023-04-06T11:08:58;8.10;99.90
15906;DHT22;8051;50.820;4.884;2023-04-06T11:11:27;8.20;99.90
15906;DHT22;8051;50.820;4.884;2023-04-06T11:13:56;8.30;99.90
15906;DHT22;8051;50.820;4.884;2023-04-06T11:16:26;8.20;99.90
15906;DHT22;8051;50.820;4.884;2023-04-06T11:18:55;8.30;99.90
15906;DHT22;8051;50.820;4.884;2023-04-06T11:21:33;8.30;99.90
15906;DHT22;8051;50.820;4.884;2023-04-06T11:24:06;8.30;99.90
15906;DHT22;8051;50.820;4.884;2023-04-06T11:26:37;8.30;99.90
15906;DHT22;8051;50.820;4.884;2023-04-06T11:29:05;8.40;99.90
15906;DHT22;8051;50.820;4.884;2023-04-06T11:31:39;8.50;99.90
15906;DHT22;8051;50.820;4.884;2023-04-06T11:34:16;8.60;99.90
15906;DHT22;8051;50.820;4.884;2023-04-06T11:36:45;8.60;99.90
15906;DHT22;8051;50.820;4.884;2023-04-06T11:39:13;8.50;99.90
15906;DHT22;8051;50.820;4.884;2023-04-06T11:41:41;8.40;99.90
15906;DHT22;8051;50.820;4.884;2023-04-06T11:44:09;8.30;99.90
15906;DHT22;8051;50.820;4.884;2023-04-06T11:46:38;8.20;99.90
15906;DHT22;8051;50.820;4.884;2023-04-06T11:49:06;8.10;99.90
15906;DHT22;8051;50.820;4.884;2023-04-06T11:51:36;8.10;99.90
15906;DHT22;8051;50.820;4.884;2023-04-06T11:54:04;8.10;99.90
15906;DHT22;8051;50.820;4.884;2023-04-06T11:56:31;8.00;99.90
15906;DHT22;8051;50.820;4.884;2023-04-06T11:58:59;7.90;99.90
15906;DHT22;8051;50.820;4.884;2023-04-06T12:01:26;7.90;99.90
15906;DHT22;8051;50.820;4.884;2023-04-06T12:03:55;7.90;99.90
15906;DHT22;8051;50.820;4.884;2023-04-06T12:06:24;8.00;99.90
15906;DHT22;8051;50.820;4.884;2023-04-06T12:08:52;8.10;99.90
15906;DHT22;8051;50.820;4.884;2023-04-06T12:11:19;8.10;99.90
15906;DHT22;8051;50.820;4.884;2023-04-06T12:13:47;8.20;99.90
15906;DHT22;8051;50.820;4.884;2023-04-06T12:16:15;8.30;99.90
15906;DHT22;8051;50.820;4.884;2023-04-06T12:18:45;8.40;99.90
15906;DHT22;8051;50.820;4.884;2023-04-06T12:21:14;8.40;99.90
15906;DHT22;8051;50.820;4.884;2023-04-06T12:23:41;8.50;99.90
15906;DHT22;8051;50.820;4.884;2023-04-06T12:26:09;8.40;99.90
15906;DHT22;8051;50.820;4.884;2023-04-06T12:28:36;8.50;99.90
15906;DHT22;8051;50.820;4.884;2023-04-06T12:31:04;8.50;99.90
15906;DHT22;8051;50.820;4.884;2023-04-06T12:33:31;8.50;99.90
15906;DHT22;8051;50.820;4.884;2023-04-06T12:35:59;8.50;99.90
15906;DHT22;8051;50.820;4.884;2023-04-06T12:38:28;8.70;99.90
15906;DHT22;8051;50.820;4.884;2023-04-06T12:40:56;8.80;99.90
15906;DHT22;8051;50.820;4.884;2023-04-06T12:43:23;8.90;99.90
15906;DHT22;8051;50.820;4.884;2023-04-06T12:45:52;8.90;99.90
15906;DHT22;8051;50.820;4.884;2023-04-06T12:48:19;8.80;99.90
15906;DHT22;8051;50.820;4.884;2023-04-06T12:50:54;9.00;99.90
15906;DHT22;8051;50.820;4.884;2023-04-06T12:53:22;9.10;99.90
15906;DHT22;8051;50.820;4.884;2023-04-06T12:55:53;9.10;99.90
15906;DHT22;8051;50.820;4.884;2023-04-06T12:58:21;9.10;99.90
15906;DHT22;8051;50.820;4.884;2023-04-06T13:00:50;9.10;99.90
15906;DHT22;8051;50.820;4.884;2023-04-06T13:03:17;9.10;99.90
15906;DHT22;8051;50.820;4.884;2023-04-06T13:05:45;9.00;99.90
15906;DHT22;8051;50.820;4.884;2023-04-06T13:08:13;9.00;99.90
15906;DHT22;8051;50.820;4.884;2023-04-06T13:10:43;9.10;99.90
15906;DHT22;8051;50.820;4.884;2023-04-06T13:13:12;9.00;99.90
15906;DHT22;8051;50.820;4.884;2023-04-06T13:15:40;9.10;99.90
15906;DHT22;8051;50.820;4.884;2023-04-06T13:18:07;9.10;99.90
15906;DHT22;8051;50.820;4.884;2023-04-06T13:20:35;9.00;99.90
15906;DHT22;8051;50.820;4.884;2023-04-06T13:23:03;8.90;99.90
15906;DHT22;8051;50.820;4.884;2023-04-06T13:25:30;9.00;99.90
15906;DHT22;8051;50.820;4.884;2023-04-06T13:27:58;8.90;99.90
15906;DHT22;8051;50.820;4.884;2023-04-06T13:30:28;8.90;99.90
15906;DHT22;8051;50.820;4.884;2023-04-06T13:32:56;8.80;99.90
15906;DHT22;8051;50.820;4.884;2023-04-06T13:35:23;8.70;99.90
15906;DHT22;8051;50.820;4.884;2023-04-06T13:37:51;8.60;99.90
15906;DHT22;8051;50.820;4.884;2023-04-06T13:40:19;8.50;99.90
15906;DHT22;8051;50.820;4.884;2023-04-06T13:42:47;8.50;99.90
15906;DHT22;8051;50.820;4.884;2023-04-06T13:45:14;8.50;99.90
15906;DHT22;8051;50.820;4.884;2023-04-06T13:47:43;8.40;99.90
15906;DHT22;8051;50.820;4.884;2023-04-06T13:50:11;8.30;99.90
15906;DHT22;8051;50.820;4.884;2023-04-06T13:52:39;8.20;99.90
15906;DHT22;8051;50.820;4.884;2023-04-06T13:55:07;8.20;99.90
15906;DHT22;8051;50.820;4.884;2023-04-06T13:57:34;8.20;99.90
15906;DHT22;8051;50.820;4.884;2023-04-06T14:00:04;8.20;99.90
15906;DHT22;8051;50.820;4.884;2023-04-06T14:02:32;8.10;99.90
15906;DHT22;8051;50.820;4.884;2023-04-06T14:05:01;8.20;99.90
15906;DHT22;8051;50.820;4.884;2023-04-06T14:07:29;8.30;99.90
15906;DHT22;8051;50.820;4.884;2023-04-06T14:09:56;8.40;99.90
15906;DHT22;8051;50.820;4.884;2023-04-06T14:12:24;8.50;99.90
15906;DHT22;8051;50.820;4.884;2023-04-06T14:14:52;8.50;99.90
15906;DHT22;8051;50.820;4.884;2023-04-06T14:17:20;8.70;99.90
15906;DHT22;8051;50.820;4.884;2023-04-06T14:19:47;8.70;99.90
15906;DHT22;8051;50.820;4.884;2023-04-06T14:22:17;8.80;99.90
15906;DHT22;8051;50.820;4.884;2023-04-06T14:24:45;8.80;99.90
15906;DHT22;8051;50.820;4.884;2023-04-06T14:27:13;8.80;99.90
15906;DHT22;8051;50.820;4.884;2023-04-06T14:29:40;8.90;99.90
15906;DHT22;8051;50.820;4.884;2023-04-06T14:32:08;8.90;99.90
15906;DHT22;8051;50.820;4.884;2023-04-06T14:34:37;8.90;99.90
15906;DHT22;8051;50.820;4.884;2023-04-06T14:37:04;8.90;99.90
15906;DHT22;8051;50.820;4.884;2023-04-06T14:39:33;8.90;99.90
15906;DHT22;8051;50.820;4.884;2023-04-06T14:42:01;8.90;99.90
15906;DHT22;8051;50.820;4.884;2023-04-06T14:44:28;8.90;99.90
15906;DHT22;8051;50.820;4.884;2023-04-06T14:46:56;9.00;99.90
15906;DHT22;8051;50.820;4.884;2023-04-06T14:49:23;8.90;99.90
15906;DHT22;8051;50.820;4.884;2023-04-06T14:51:51;8.90;99.90
15906;DHT22;8051;50.820;4.884;2023-04-06T14:54:18;8.90;99.90
15906;DHT22;8051;50.820;4.884;2023-04-06T14:56:47;8.80;99.90
15906;DHT22;8051;50.820;4.884;2023-04-06T14:59:15;8.80;99.90
15906;DHT22;8051;50.820;4.884;2023-04-06T15:01:42;8.70;99.90
15906;DHT22;8051;50.820;4.884;2023-04-06T15:04:09;8.60;99.90
15906;DHT22;8051;50.820;4.884;2023-04-06T15:06:37;8.60;99.90
15906;DHT22;8051;50.820;4.884;2023-04-06T15:09:05;8.60;99.90
15906;DHT22;8051;50.820;4.884;2023-04-06T15:11:32;8.60;99.90
15906;DHT22;8051;50.820;4.884;2023-04-06T15:14:01;8.60;99.90
15906;DHT22;8051;50.820;4.884;2023-04-06T15:16:29;8.60;99.90
15906;DHT22;8051;50.820;4.884;2023-04-06T15:18:58;8.60;99.90
15906;DHT22;8051;50.820;4.884;2023-04-06T15:21:25;8.60;99.90
15906;DHT22;8051;50.820;4.884;2023-04-06T15:23:53;8.70;99.90
15906;DHT22;8051;50.820;4.884;2023-04-06T15:26:20;8.70;99.90
15906;DHT22;8051;50.820;4.884;2023-04-06T15:28:48;8.70;99.90
15906;DHT22;8051;50.820;4.884;2023-04-06T15:31:18;8.80;99.90
15906;DHT22;8051;50.820;4.884;2023-04-06T15:33:46;8.80;99.90
15906;DHT22;8051;50.820;4.884;2023-04-06T15:36:23;8.90;99.90
15906;DHT22;8051;50.820;4.884;2023-04-06T15:38:52;8.90;99.90
15906;DHT22;8051;50.820;4.884;2023-04-06T15:41:19;9.00;99.90
15906;DHT22;8051;50.820;4.884;2023-04-06T15:43:48;9.10;99.90
15906;DHT22;8051;50.820;4.884;2023-04-06T15:46:17;9.10;99.90
15906;DHT22;8051;50.820;4.884;2023-04-06T15:48:45;9.10;99.90
15906;DHT22;8051;50.820;4.884;2023-04-06T15:51:13;9.20;99.90
15906;DHT22;8051;50.820;4.884;2023-04-06T15:53:42;9.30;99.90
15906;DHT22;8051;50.820;4.884;2023-04-06T15:56:10;9.30;99.90
15906;DHT22;8051;50.820;4.884;2023-04-06T15:58:39;9.40;99.90
15906;DHT22;8051;50.820;4.884;2023-04-06T16:01:13;9.50;99.90
15906;DHT22;8051;50.820;4.884;2023-04-06T16:03:42;9.50;99.90
15906;DHT22;8051;50.820;4.884;2023-04-06T16:06:10;9.60;99.90
15906;DHT22;8051;50.820;4.884;2023-04-06T16:08:38;9.80;99.90